Time;durP1;ratioP1;P1;durP2;ratioP2;P2;SDS_P1;SDS_P2;PMS_P1;PMS_P2;Temp;Humidity;BMP_temperature;BMP_pressure;BME280_temperature;BME280_humidity;BME280_pressure;Samples;Min_cycle;Max_cycle;Signal;HPM_P1;HPM_P2
2024/04/04 00:00:58;;;;;;;8.18;1.17;;;;;;;11.43;100.00;92772.94;2090005;28;20470;-81
2024/04/04 00:01:59;;;;;;;4.88;0.80;;;;;;;11.44;100.00;92769.81;2090040;28;20025;-82
2024/04/04 00:03:00;;;;;;;3.72;0.90;;;;;;;11.25;100.00;92768.13;2090136;28;20029;-81
2024/04/04 00:04:01;;;;;;;2.95;0.90;;;;;;;11.30;100.00;92771.00;2091872;28;20854;-81
2024/04/04 00:05:02;;;;;;;2.92;0.73;;;;;;;11.32;100.00;92763.28;2097065;28;20025;-80
2024/04/04 00:06:07;;;;;;;1.40;0.80;;;;;;;11.37;100.00;92767.38;2081597;28;20496;-80
2024/04/04 00:07:08;;;;;;;3.25;0.63;;;;;;;11.29;100.00;92769.50;2074923;28;20033;-82
2024/04/04 00:08:30;;;;;;;3.50;0.90;;;;;;;11.40;100.00;92765.75;2073822;28;20539;-80
2024/04/04 00:11:28;;;;;;;3.13;0.60;;;;;;;11.41;100.00;92762.66;2102541;28;20433;-82
2024/04/04 00:12:29;;;;;;;2.55;0.80;;;;;;;11.49;100.00;92752.47;2089902;28;20039;-80
2024/04/04 00:13:30;;;;;;;2.50;0.80;;;;;;;11.42;100.00;92755.38;2073714;28;20118;-81
2024/04/04 00:14:31;;;;;;;2.72;0.68;;;;;;;11.43;100.00;92756.88;2075554;28;20033;-82
2024/04/04 00:15:38;;;;;;;5.10;1.00;;;;;;;11.25;100.00;92760.84;2081696;28;20029;-80
2024/04/04 00:16:39;;;;;;;3.70;0.80;;;;;;;11.34;100.00;92760.19;2083362;28;20029;-81
2024/04/04 00:17:40;;;;;;;7.28;0.90;;;;;;;11.32;100.00;92765.22;2086902;28;20030;-80
2024/04/04 00:18:42;;;;;;;5.13;1.00;;;;;;;11.27;100.00;92771.09;2096506;28;20031;-80
2024/04/04 00:19:44;;;;;;;1.27;0.70;;;;;;;11.34;100.00;92774.31;2106773;28;20023;-81
2024/04/04 00:20:45;;;;;;;2.35;0.57;;;;;;;11.31;100.00;92764.47;2115116;28;20027;-81
2024/04/04 00:21:46;;;;;;;1.88;0.65;;;;;;;11.26;100.00;92764.25;2102262;28;20051;-80
2024/04/04 00:22:47;;;;;;;4.70;0.70;;;;;;;11.43;100.00;92762.97;2081679;28;20025;-80
2024/04/04 00:23:48;;;;;;;3.67;0.90;;;;;;;11.43;100.00;92765.66;2073539;28;20498;-81
2024/04/04 00:24:49;;;;;;;1.52;0.70;;;;;;;11.39;100.00;92767.69;2081775;28;20120;-82
2024/04/04 00:25:50;;;;;;;2.95;0.70;;;;;;;11.26;100.00;92764.25;2086679;28;20024;-80
2024/04/04 00:26:51;;;;;;;2.80;0.82;;;;;;;11.15;100.00;92756.56;2089467;28;20063;-81
2024/04/04 00:27:51;;;;;;;3.00;0.80;;;;;;;11.08;100.00;92772.81;2081322;28;20073;-80
2024/04/04 00:28:52;;;;;;;5.28;0.80;;;;;;;11.03;100.00;92763.41;2078165;28;20032;-82
2024/04/04 00:29:53;;;;;;;3.75;0.68;;;;;;;10.94;100.00;92770.56;2081533;28;20109;-81
2024/04/04 00:30:54;;;;;;;4.22;0.88;;;;;;;11.01;100.00;92771.09;2089516;28;20319;-81
2024/04/04 00:31:55;;;;;;;3.00;0.60;;;;;;;11.04;100.00;92764.91;2074468;28;20049;-81
2024/04/04 00:32:56;;;;;;;3.65;0.88;;;;;;;11.15;100.00;92766.50;2081594;28;20079;-81
2024/04/04 00:33:58;;;;;;;3.88;0.75;;;;;;;11.12;100.00;92765.44;2089545;28;20462;-80
2024/04/04 00:34:59;;;;;;;4.55;0.90;;;;;;;11.03;100.00;92765.34;2102055;28;20445;-81
2024/04/04 00:36:00;;;;;;;2.95;0.80;;;;;;;10.86;100.00;92764.66;2095902;28;20035;-82
2024/04/04 00:37:04;;;;;;;3.90;0.77;;;;;;;11.06;100.00;92770.59;2078718;28;20014;-81
2024/04/04 00:38:05;;;;;;;3.45;0.70;;;;;;;11.15;100.00;92766.50;2074083;28;20037;-81
2024/04/04 00:39:07;;;;;;;4.40;0.73;;;;;;;11.15;100.00;92769.16;2088174;28;20116;-81
2024/04/04 00:40:09;;;;;;;4.03;0.60;;;;;;;11.23;100.00;92767.78;2081600;28;20429;-80
2024/04/04 00:41:10;;;;;;;5.32;0.82;;;;;;;11.21;100.00;92767.47;2081854;28;20385;-81
2024/04/04 00:42:11;;;;;;;1.88;0.80;;;;;;;11.18;100.00;92761.03;2073436;28;20121;-81
2024/04/04 00:43:12;;;;;;;2.85;0.77;;;;;;;11.14;100.00;92773.03;2073478;28;20509;-81
2024/04/04 00:44:13;;;;;;;3.30;0.88;;;;;;;11.21;100.00;92768.22;2089702;28;20056;-81
2024/04/04 00:45:14;;;;;;;2.50;0.75;;;;;;;11.20;100.00;92768.66;2089562;28;20028;-81
2024/04/04 00:46:16;;;;;;;4.35;0.60;;;;;;;11.17;100.00;92772.19;2081721;28;20506;-82
2024/04/04 00:47:17;;;;;;;3.13;1.20;;;;;;;11.21;100.00;92765.56;2073235;28;20022;-81
2024/04/04 00:48:18;;;;;;;5.97;0.80;;;;;;;11.20;100.00;92774.75;2073005;28;20121;-81
2024/04/04 00:49:19;;;;;;;2.90;0.73;;;;;;;11.19;100.00;92769.81;2073568;28;20583;-80
2024/04/04 00:50:20;;;;;;;2.33;0.60;;;;;;;11.25;100.00;92763.53;2098038;28;20032;-80
2024/04/04 00:51:21;;;;;;;1.42;0.50;;;;;;;11.21;100.00;92770.91;2106336;28;20027;-80
2024/04/04 00:52:22;;;;;;;3.10;0.80;;;;;;;11.27;100.00;92763.81;2097870;28;20024;-80
2024/04/04 00:53:25;;;;;;;1.05;0.50;;;;;;;11.02;100.00;92767.25;2089851;28;20028;-81
2024/04/04 00:54:26;;;;;;;3.00;0.68;;;;;;;11.08;100.00;92760.19;2098047;28;20127;-80
2024/04/04 00:55:27;;;;;;;3.40;0.73;;;;;;;11.21;100.00;92767.47;2083324;28;20025;-81
2024/04/04 00:56:28;;;;;;;2.38;0.60;;;;;;;11.22;100.00;92768.97;2091600;28;20104;-80
2024/04/04 00:57:30;;;;;;;2.38;0.73;;;;;;;11.24;100.00;92771.97;2089380;28;20443;-81
2024/04/04 00:58:31;;;;;;;2.10;0.73;;;;;;;11.18;100.00;92768.31;2088528;28;20036;-82
2024/04/04 00:59:32;;;;;;;3.63;0.70;;;;;;;11.20;100.00;92776.69;2089623;28;20021;-81
2024/04/04 01:00:33;;;;;;;2.20;0.80;;;;;;;11.29;100.00;92768.78;2091648;28;20063;-80
2024/04/04 01:01:34;;;;;;;3.20;1.00;;;;;;;11.27;100.00;92776.47;2084272;28;20021;-81
2024/04/04 01:02:35;;;;;;;3.08;0.80;;;;;;;11.28;100.00;92773.38;2089498;28;20056;-80
2024/04/04 01:03:36;;;;;;;4.22;0.55;;;;;;;11.24;100.00;92782.69;2089437;28;20533;-80
2024/04/04 01:04:37;;;;;;;2.08;0.60;;;;;;;11.14;100.00;92776.44;2081351;28;20135;-80
2024/04/04 01:05:38;;;;;;;1.83;0.93;;;;;;;11.06;100.00;92772.47;2081952;28;20029;-80
2024/04/04 01:06:47;;;;;;;5.10;0.70;;;;;;;11.10;100.00;92779.22;2096918;28;20020;-80
2024/04/04 01:07:49;;;;;;;0.80;0.50;;;;;;;11.15;100.00;92779.88;2089509;28;20128;-80
2024/04/04 01:08:50;;;;;;;1.80;0.88;;;;;;;10.99;100.00;92775.38;2089804;28;20031;-80
2024/04/04 01:09:50;;;;;;;2.80;0.70;;;;;;;11.06;100.00;92773.25;2097737;28;20028;-80
2024/04/04 01:10:51;;;;;;;2.88;0.80;;;;;;;10.79;100.00;92770.94;2081237;28;20474;-80
2024/04/04 01:11:52;;;;;;;2.05;0.70;;;;;;;11.05;100.00;92781.69;2073229;28;20113;-81
2024/04/04 01:12:53;;;;;;;2.20;0.70;;;;;;;11.21;100.00;92770.16;2073191;28;20073;-80
2024/04/04 01:13:54;;;;;;;2.80;0.80;;;;;;;11.18;100.00;92769.06;2089271;28;20086;-81
2024/04/04 01:14:55;;;;;;;4.75;0.88;;;;;;;10.91;100.00;92777.50;2081227;28;20112;-80
2024/04/04 01:15:56;;;;;;;2.13;0.52;;;;;;;11.14;100.00;92778.38;2094954;28;20024;-81
2024/04/04 01:16:57;;;;;;;2.38;0.70;;;;;;;11.15;100.00;92780.66;2105990;28;20020;-80
2024/04/04 01:17:58;;;;;;;3.97;0.80;;;;;;;11.09;100.00;92783.09;2103305;28;20157;-81
2024/04/04 01:19:00;;;;;;;3.63;0.80;;;;;;;11.10;100.00;92778.47;2089308;28;20021;-81
2024/04/04 01:20:01;;;;;;;2.50;0.70;;;;;;;11.10;100.00;92775.81;2081246;28;20397;-80
2024/04/04 01:21:03;;;;;;;3.67;0.80;;;;;;;11.14;100.00;92778.38;2081599;28;20033;-81
2024/04/04 01:22:04;;;;;;;2.90;0.68;;;;;;;11.26;100.00;92772.28;2089507;28;20021;-80
2024/04/04 01:23:05;;;;;;;4.82;0.73;;;;;;;11.33;100.00;92778.19;2089472;28;20264;-81
2024/04/04 01:24:06;;;;;;;2.63;0.88;;;;;;;11.19;100.00;92780.53;2081180;28;20021;-80
2024/04/04 01:25:07;;;;;;;3.58;0.70;;;;;;;11.31;100.00;92780.53;2074205;28;20018;-80
2024/04/04 01:26:09;;;;;;;3.15;0.90;;;;;;;11.22;100.00;92782.34;2089261;28;20103;-81
2024/04/04 01:27:10;;;;;;;0.90;0.60;;;;;;;11.17;100.00;92782.88;2084790;28;20532;-79
2024/04/04 01:28:11;;;;;;;2.88;0.90;;;;;;;11.09;100.00;92782.34;2075261;28;20053;-80
2024/04/04 01:29:12;;;;;;;1.60;0.60;;;;;;;11.17;100.00;92780.22;2081059;28;20079;-80
2024/04/04 01:30:13;;;;;;;6.68;0.80;;;;;;;11.23;100.00;92779.25;2072893;28;20026;-80
2024/04/04 01:31:14;;;;;;;3.30;0.50;;;;;;;11.17;100.00;92788.97;2069333;28;20364;-80
2024/04/04 01:32:15;;;;;;;5.97;0.95;;;;;;;11.23;100.00;92779.25;2074191;28;20096;-81
2024/04/04 01:33:16;;;;;;;1.17;0.70;;;;;;;11.34;100.00;92774.31;2076649;28;20029;-80
2024/04/04 01:34:17;;;;;;;4.35;0.63;;;;;;;11.41;100.00;92778.69;2072881;28;20026;-81
2024/04/04 01:35:18;;;;;;;2.28;0.65;;;;;;;11.33;100.00;92774.75;2088254;28;20472;-80
2024/04/04 01:36:19;;;;;;;3.40;0.70;;;;;;;11.19;100.00;92772.50;2080756;28;20021;-80
2024/04/04 01:37:20;;;;;;;2.75;0.80;;;;;;;11.15;100.00;92780.66;2088645;28;20052;-81
2024/04/04 01:38:20;;;;;;;2.80;0.68;;;;;;;11.05;100.00;92771.00;2072788;28;20026;-80
2024/04/04 01:39:21;;;;;;;7.20;1.05;;;;;;;10.94;100.00;92779.34;2072879;28;20033;-80
2024/04/04 01:40:22;;;;;;;2.15;0.52;;;;;;;11.12;100.00;92773.47;2081028;28;20037;-80
2024/04/04 01:41:23;;;;;;;4.47;0.77;;;;;;;10.96;100.00;92776.22;2090024;28;20071;-80
2024/04/04 01:42:24;;;;;;;4.97;0.63;;;;;;;11.02;100.00;92774.53;2087991;28;20036;-80
2024/04/04 01:43:25;;;;;;;1.77;0.65;;;;;;;11.09;100.00;92775.06;2072706;28;20018;-81
2024/04/04 01:44:26;;;;;;;2.92;0.70;;;;;;;11.26;100.00;92777.66;2064778;28;20049;-80
2024/04/04 01:45:27;;;;;;;2.95;0.52;;;;;;;11.32;100.00;92778.59;2064821;28;20034;-81
2024/04/04 01:46:28;;;;;;;2.90;0.60;;;;;;;11.25;100.00;92776.91;2072891;28;20467;-81
2024/04/04 01:47:29;;;;;;;2.53;0.65;;;;;;;11.23;100.00;92770.47;2072817;28;20018;-81
2024/04/04 01:48:30;;;;;;;3.55;0.60;;;;;;;11.28;100.00;92777.94;2075114;28;20025;-81
2024/04/04 01:49:31;;;;;;;3.63;0.75;;;;;;;11.14;100.00;92784.47;2072860;28;20022;-82
2024/04/04 01:50:32;;;;;;;1.00;0.60;;;;;;;11.30;100.00;92776.34;2080927;28;20052;-81
2024/04/04 01:51:33;;;;;;;2.30;0.80;;;;;;;11.09;100.00;92785.00;2089612;28;20028;-81
2024/04/04 01:52:34;;;;;;;1.52;0.60;;;;;;;11.28;100.00;92776.06;2086626;28;20048;-80
2024/04/04 01:53:36;;;;;;;5.05;0.70;;;;;;;11.15;100.00;92780.66;2083295;28;20021;-80
2024/04/04 01:54:37;;;;;;;4.93;0.60;;;;;;;11.34;100.00;92777.00;2081218;28;20009;-81
2024/04/04 01:55:38;;;;;;;1.95;0.68;;;;;;;11.32;100.00;92770.56;2079813;28;20064;-81
2024/04/04 01:56:39;;;;;;;1.70;0.88;;;;;;;11.29;100.00;92772.19;2062755;28;20292;-82
2024/04/04 01:57:40;;;;;;;2.22;0.57;;;;;;;11.28;100.00;92770.69;2072489;28;20025;-81
2024/04/04 01:58:41;;;;;;;2.83;0.85;;;;;;;11.20;100.00;92766.00;2070255;28;20022;-81
2024/04/04 01:59:42;;;;;;;2.72;0.70;;;;;;;11.39;100.00;92770.38;2078722;28;20056;-80
2024/04/04 02:00:43;;;;;;;4.40;1.45;;;;;;;11.43;100.00;92771.00;2080720;28;20030;-80
2024/04/04 02:01:44;;;;;;;3.05;0.57;;;;;;;11.39;100.00;92774.97;2075899;28;20025;-80
2024/04/04 02:02:45;;;;;;;2.17;0.95;;;;;;;11.22;100.00;92772.41;2072189;28;20036;-81
2024/04/04 02:03:46;;;;;;;3.90;0.68;;;;;;;11.32;100.00;92767.91;2069504;28;20037;-82
2024/04/04 02:04:47;;;;;;;3.30;0.80;;;;;;;11.16;100.00;92765.34;2076937;28;20032;-82
2024/04/04 02:05:48;;;;;;;3.80;0.70;;;;;;;11.35;100.00;92765.13;2073150;28;20097;-81
2024/04/04 02:06:50;;;;;;;2.08;0.60;;;;;;;11.45;100.00;92774.00;2080870;28;20045;-82
2024/04/04 02:07:51;;;;;;;3.53;0.60;;;;;;;11.43;100.00;92759.56;2089050;28;20055;-81
2024/04/04 02:08:52;;;;;;;2.17;0.70;;;;;;;11.38;100.00;92763.53;2089292;28;20033;-80
2024/04/04 02:09:53;;;;;;;3.25;0.60;;;;;;;11.38;100.00;92768.88;2088990;28;20025;-80
2024/04/04 02:10:54;;;;;;;3.03;0.70;;;;;;;11.33;100.00;92769.41;2080453;28;20467;-80
2024/04/04 02:11:56;;;;;;;2.75;0.70;;;;;;;11.20;100.00;92769.41;2077862;28;20033;-81
2024/04/04 02:12:58;;;;;;;1.88;0.60;;;;;;;11.05;100.00;92777.09;2080915;28;20104;-80
2024/04/04 02:13:59;;;;;;;1.80;0.70;;;;;;;11.15;100.00;92779.88;2081056;28;20025;-80
2024/04/04 02:15:00;;;;;;;2.65;0.90;;;;;;;11.14;100.00;92773.78;2080732;28;20104;-80
2024/04/04 02:16:02;;;;;;;5.80;0.70;;;;;;;11.03;100.00;92779.44;2080950;28;20039;-80
2024/04/04 02:17:04;;;;;;;3.33;0.80;;;;;;;10.90;100.00;92770.66;2080906;28;20503;-82
2024/04/04 02:18:06;;;;;;;1.63;0.70;;;;;;;11.00;100.00;92774.94;2080871;28;20037;-82
2024/04/04 02:19:07;;;;;;;3.13;0.82;;;;;;;10.89;100.00;92774.50;2072829;28;20092;-80
2024/04/04 02:20:12;;;;;;;0.88;0.70;;;;;;;11.07;100.00;92779.34;2080965;28;20394;-80
2024/04/04 02:21:13;;;;;;;2.53;0.90;;;;;;;10.99;100.00;92776.13;2089134;28;20107;-80
2024/04/04 02:22:14;;;;;;;3.15;0.80;;;;;;;10.78;100.00;92776.72;2080250;28;20395;-80
2024/04/04 02:23:15;;;;;;;1.90;0.77;;;;;;;10.71;100.00;92775.00;2077041;28;20061;-82
2024/04/04 02:24:16;;;;;;;1.27;0.70;;;;;;;10.81;100.00;92773.97;2080762;28;20231;-82
2024/04/04 02:25:18;;;;;;;3.05;0.70;;;;;;;10.53;100.00;92770.13;2080115;28;20109;-80
2024/04/04 02:26:19;;;;;;;1.35;0.60;;;;;;;10.31;100.00;92775.28;2074665;28;20041;-81
2024/04/04 02:27:20;;;;;;;3.22;0.90;;;;;;;10.59;100.00;92768.47;2075662;28;20052;-81
2024/04/04 02:28:22;;;;;;;6.50;1.00;;;;;;;10.59;100.00;92773.06;2083596;28;20396;-80
2024/04/04 02:29:24;;;;;;;3.03;0.80;;;;;;;10.56;100.00;92769.28;2073613;28;20029;-81
2024/04/04 02:30:25;;;;;;;3.28;0.80;;;;;;;10.69;100.00;92769.34;2082357;28;20117;-80
2024/04/04 02:31:26;;;;;;;3.15;0.80;;;;;;;10.93;100.00;92758.34;2074568;28;20033;-81
2024/04/04 02:32:30;;;;;;;3.42;0.90;;;;;;;10.98;100.00;92765.88;2072305;28;20119;-80
2024/04/04 02:33:31;;;;;;;2.97;0.93;;;;;;;10.87;100.00;92762.72;2073207;28;20118;-81
2024/04/04 02:34:32;;;;;;;4.53;0.98;;;;;;;10.91;100.00;92760.72;2088971;28;20029;-80
2024/04/04 02:35:33;;;;;;;4.82;0.90;;;;;;;10.93;100.00;92763.69;2080578;28;20627;-80
2024/04/04 02:36:34;;;;;;;2.65;1.15;;;;;;;10.77;100.00;92765.28;2080640;28;20060;-80
2024/04/04 02:37:35;;;;;;;3.20;0.77;;;;;;;10.79;100.00;92760.25;2097126;28;20043;-80
2024/04/04 02:38:36;;;;;;;4.28;0.80;;;;;;;10.86;100.00;92753.22;2089941;28;20063;-81
2024/04/04 02:39:37;;;;;;;3.05;0.80;;;;;;;10.88;100.00;92759.63;2087565;28;20629;-80
2024/04/04 02:40:40;;;;;;;3.90;0.75;;;;;;;10.76;100.00;92755.03;2053175;28;20048;-81
2024/04/04 02:41:41;;;;;;;3.15;0.88;;;;;;;10.64;100.00;92759.16;1986668;28;20419;-80
2024/04/04 02:42:42;;;;;;;4.82;0.80;;;;;;;10.79;100.00;92756.84;2000916;28;20041;-80
2024/04/04 02:43:43;;;;;;;2.30;0.90;;;;;;;10.66;100.00;92754.13;2008707;28;20029;-82
2024/04/04 02:44:44;;;;;;;0.95;0.80;;;;;;;10.72;100.00;92759.72;2005863;28;20565;-81
2024/04/04 02:45:45;;;;;;;4.05;0.90;;;;;;;10.72;100.00;92751.69;2015583;28;20029;-80
2024/04/04 02:46:46;;;;;;;2.67;0.70;;;;;;;10.74;100.00;92758.09;2006711;28;20057;-80
2024/04/04 02:47:47;;;;;;;2.22;0.75;;;;;;;10.56;100.00;92758.59;2016238;28;20478;-80
2024/04/04 02:48:48;;;;;;;1.55;0.70;;;;;;;10.71;100.00;92750.97;2038268;28;20385;-81
2024/04/04 02:49:50;;;;;;;1.80;0.93;;;;;;;10.91;100.00;92761.47;2075804;28;20092;-80
2024/04/04 02:50:55;;;;;;;2.42;0.77;;;;;;;10.96;100.00;92760.94;2069987;28;20412;-80
2024/04/04 02:51:57;;;;;;;3.15;0.60;;;;;;;11.18;100.00;92758.38;1989988;28;20041;-80
2024/04/04 02:52:58;;;;;;;3.63;0.68;;;;;;;10.97;100.00;92757.06;1999833;28;20048;-80
2024/04/04 02:53:59;;;;;;;3.53;0.70;;;;;;;11.10;100.00;92757.81;2007536;28;20024;-80
2024/04/04 02:55:01;;;;;;;5.30;0.75;;;;;;;10.88;100.00;92759.63;2011683;28;21128;-80
2024/04/04 02:56:03;;;;;;;3.95;0.82;;;;;;;10.80;100.00;92755.69;2008085;28;20053;-82
2024/04/04 02:57:04;;;;;;;5.53;0.70;;;;;;;11.07;100.00;92750.69;2029158;28;20508;-81
2024/04/04 02:58:05;;;;;;;1.98;1.02;;;;;;;11.02;100.00;92755.81;2039031;28;20071;-80
2024/04/04 02:59:06;;;;;;;1.25;0.70;;;;;;;11.01;100.00;92760.38;2039259;28;20044;-81
2024/04/04 03:00:08;;;;;;;2.53;0.80;;;;;;;10.92;100.00;92757.59;2043453;28;20390;-81
2024/04/04 03:01:09;;;;;;;1.63;0.80;;;;;;;10.84;100.00;92756.31;2055502;28;20036;-81
2024/04/04 03:02:10;;;;;;;2.63;0.93;;;;;;;10.81;100.00;92754.50;2053311;28;20186;-80
2024/04/04 03:03:11;;;;;;;2.58;0.70;;;;;;;10.89;100.00;92755.81;2058184;28;20035;-80
2024/04/04 03:04:12;;;;;;;3.40;0.77;;;;;;;10.72;100.00;92762.41;2070962;28;20743;-80
2024/04/04 03:05:13;;;;;;;1.92;0.60;;;;;;;10.64;100.00;92756.50;2079520;28;20116;-80
2024/04/04 03:06:18;;;;;;;2.35;0.73;;;;;;;10.96;100.00;92754.81;2080742;28;20537;-81
2024/04/04 03:07:19;;;;;;;4.53;2.78;;;;;;;11.00;100.00;92756.22;2097726;28;20111;-80
2024/04/04 03:10:17;;;;;;;3.08;2.08;;;;;;;10.73;100.00;92759.28;2105273;28;20024;-81
2024/04/04 03:11:27;;;;;;;2.38;1.10;;;;;;;10.73;100.00;92747.84;2088784;28;20029;-81
2024/04/04 03:12:28;;;;;;;4.22;1.30;;;;;;;10.84;100.00;92751.72;2066686;28;20022;-81
2024/04/04 03:13:30;;;;;;;2.85;1.02;;;;;;;11.01;100.00;92756.97;2080555;28;20855;-80
2024/04/04 03:14:30;;;;;;;2.42;0.80;;;;;;;11.02;100.00;92751.22;2104231;28;20598;-81
2024/04/04 03:15:31;;;;;;;1.83;0.73;;;;;;;11.03;100.00;92758.06;2097968;28;20025;-81
2024/04/04 03:16:32;;;;;;;1.55;0.80;;;;;;;10.83;100.00;92754.81;2097116;28;20028;-81
2024/04/04 03:17:33;;;;;;;3.05;1.00;;;;;;;10.81;100.00;92752.56;2096934;28;20064;-81
2024/04/04 03:18:34;;;;;;;0.98;0.80;;;;;;;10.84;100.00;92754.41;2088648;28;20025;-79
2024/04/04 03:19:35;;;;;;;4.50;1.88;;;;;;;11.10;100.00;92755.16;2088672;28;20025;-80
2024/04/04 03:20:36;;;;;;;1.75;0.90;;;;;;;11.00;100.00;92758.91;2080525;28;20474;-81
2024/04/04 03:21:37;;;;;;;2.88;1.55;;;;;;;11.17;100.00;92762.22;2088153;28;20029;-81
2024/04/04 03:22:38;;;;;;;2.70;0.85;;;;;;;11.16;100.00;92754.66;2090315;28;20032;-81
2024/04/04 03:23:39;;;;;;;5.40;0.93;;;;;;;11.09;100.00;92756.34;2085991;28;20025;-81
2024/04/04 03:24:40;;;;;;;1.73;0.88;;;;;;;11.03;100.00;92757.31;2094655;28;20028;-81
2024/04/04 03:25:41;;;;;;;2.63;0.90;;;;;;;10.90;100.00;92759.22;2090424;28;20487;-80
2024/04/04 03:26:42;;;;;;;1.70;1.20;;;;;;;11.13;100.00;92758.16;2082128;28;20021;-80
2024/04/04 03:27:43;;;;;;;5.18;2.58;;;;;;;11.26;100.00;92754.31;2090251;28;20040;-80
2024/04/04 03:28:44;;;;;;;4.13;2.80;;;;;;;11.11;100.00;92747.91;2095502;28;20078;-81
2024/04/04 03:29:45;;;;;;;5.18;1.92;;;;;;;11.11;100.00;92753.25;2090105;28;20437;-80
2024/04/04 03:30:46;;;;;;;3.97;1.42;;;;;;;11.09;100.00;92756.34;2082624;28;20088;-81
2024/04/04 03:31:47;;;;;;;6.15;1.30;;;;;;;11.20;100.00;92752.59;2095727;28;20040;-81
2024/04/04 03:32:48;;;;;;;4.30;1.05;;;;;;;11.25;100.00;92758.16;2085518;28;20069;-80
2024/04/04 03:33:52;;;;;;;2.65;0.80;;;;;;;11.19;100.00;92754.50;2090245;28;20398;-81
2024/04/04 03:34:53;;;;;;;3.03;1.20;;;;;;;11.12;100.00;92752.06;2079716;28;20029;-80
2024/04/04 03:35:55;;;;;;;2.72;1.45;;;;;;;10.88;100.00;92762.31;2082202;28;20040;-80
2024/04/04 03:36:56;;;;;;;1.88;0.95;;;;;;;10.98;100.00;92760.50;2098701;28;20103;-80
2024/04/04 03:37:57;;;;;;;3.50;1.00;;;;;;;10.95;100.00;92756.75;2081915;28;20037;-80
2024/04/04 03:38:58;;;;;;;3.28;0.93;;;;;;;10.83;100.00;92757.47;2088684;28;20044;-80
2024/04/04 03:39:59;;;;;;;7.53;2.08;;;;;;;10.88;100.00;92764.97;2098389;28;20024;-81
2024/04/04 03:41:00;;;;;;;3.90;1.42;;;;;;;11.00;100.00;92758.91;2090331;28;20808;-80
2024/04/04 03:42:01;;;;;;;4.03;1.15;;;;;;;10.98;100.00;92758.59;2087243;28;20018;-80
2024/04/04 03:43:03;;;;;;;6.88;1.20;;;;;;;11.13;100.00;92752.81;2082052;28;20091;-81
2024/04/04 03:44:05;;;;;;;3.95;1.60;;;;;;;11.12;100.00;92754.75;2074227;28;20030;-81
2024/04/04 03:45:06;;;;;;;4.50;1.05;;;;;;;11.05;100.00;92752.28;2073932;28;20368;-81
2024/04/04 03:46:07;;;;;;;1.98;1.42;;;;;;;10.90;100.00;92751.19;2097883;28;20047;-81
2024/04/04 03:47:08;;;;;;;2.80;1.02;;;;;;;10.98;100.00;92750.56;2106844;28;20027;-80
2024/04/04 03:48:09;;;;;;;6.63;1.25;;;;;;;11.02;100.00;92753.13;2090114;28;20114;-80
2024/04/04 03:49:10;;;;;;;7.13;0.98;;;;;;;10.89;100.00;92758.47;2077169;28;20074;-81
2024/04/04 03:50:11;;;;;;;11.65;1.30;;;;;;;10.97;100.00;92756.31;2081883;28;20446;-81
2024/04/04 03:51:12;;;;;;;3.75;0.70;;;;;;;10.86;100.00;92758.56;2084712;28;20045;-81
2024/04/04 03:52:16;;;;;;;4.50;0.80;;;;;;;10.76;100.00;92750.44;2069573;28;20037;-81
2024/04/04 03:53:17;;;;;;;2.83;0.75;;;;;;;10.88;100.00;92743.59;2082249;28;20061;-82
2024/04/04 03:54:17;;;;;;;1.75;0.73;;;;;;;10.58;100.00;92748.25;2073774;28;20029;-82
2024/04/04 03:55:18;;;;;;;3.45;0.80;;;;;;;10.74;100.00;92744.75;2081919;28;20033;-81
2024/04/04 03:56:19;;;;;;;1.08;0.70;;;;;;;10.93;100.00;92747.66;2093678;28;20024;-80
2024/04/04 03:57:20;;;;;;;2.10;0.77;;;;;;;10.92;100.00;92744.22;2077216;28;20053;-82
2024/04/04 03:58:22;;;;;;;2.85;0.95;;;;;;;11.00;100.00;92739.44;2089393;28;20036;-81
2024/04/04 03:59:23;;;;;;;4.60;1.65;;;;;;;10.96;100.00;92733.44;2089001;28;20382;-81
2024/04/04 04:00:24;;;;;;;3.47;1.38;;;;;;;10.72;100.00;92744.44;2084768;28;20033;-81
2024/04/04 04:01:25;;;;;;;5.65;3.22;;;;;;;10.76;100.00;92741.66;2095843;28;20040;-81
2024/04/04 04:02:26;;;;;;;4.25;1.45;;;;;;;10.86;100.00;92735.25;2098461;28;20060;-81
2024/04/04 04:03:27;;;;;;;2.67;1.30;;;;;;;10.67;100.00;92734.28;2090130;28;20040;-81
2024/04/04 04:04:28;;;;;;;3.85;0.90;;;;;;;10.79;100.00;92740.78;2081899;28;20046;-80
2024/04/04 04:05:29;;;;;;;2.65;0.80;;;;;;;10.73;100.00;92739.84;2082611;28;20049;-81
2024/04/04 04:06:30;;;;;;;2.72;0.73;;;;;;;10.63;100.00;92741.63;2081965;28;20501;-81
2024/04/04 04:07:31;;;;;;;2.33;0.85;;;;;;;10.76;100.00;92742.41;2098286;28;20029;-80
2024/04/04 04:08:32;;;;;;;1.98;0.73;;;;;;;10.89;100.00;92734.41;2098365;28;20497;-80
2024/04/04 04:09:33;;;;;;;3.67;1.17;;;;;;;10.80;100.00;92732.38;2081746;28;20033;-80
2024/04/04 04:10:34;;;;;;;2.22;1.02;;;;;;;10.45;100.00;92736.03;2089919;28;20032;-81
2024/04/04 04:11:35;;;;;;;3.20;0.90;;;;;;;10.45;100.00;92741.38;2090091;28;20025;-81
2024/04/04 04:12:36;;;;;;;5.90;3.40;;;;;;;10.40;100.00;92728.53;2075419;28;20057;-80
2024/04/04 04:13:37;;;;;;;3.55;1.60;;;;;;;10.47;100.00;92736.34;2081557;28;20021;-82
2024/04/04 04:14:38;;;;;;;2.70;1.00;;;;;;;10.84;100.00;92743.72;2085547;28;20537;-81
2024/04/04 04:15:40;;;;;;;3.85;1.10;;;;;;;10.93;100.00;92744.97;2081797;28;20025;-80
2024/04/04 04:16:41;;;;;;;3.55;0.73;;;;;;;10.50;100.00;92738.19;2074087;28;20069;-80
2024/04/04 04:17:42;;;;;;;6.38;1.00;;;;;;;10.54;100.00;92746.84;2098210;28;20035;-80
2024/04/04 04:18:42;;;;;;;4.28;1.00;;;;;;;10.79;100.00;92743.47;2106616;28;20090;-80
2024/04/04 04:19:43;;;;;;;3.45;1.10;;;;;;;10.51;100.00;92745.78;2089828;28;20478;-81
2024/04/04 04:22:04;;;;;;;3.75;1.02;;;;;;;10.40;100.00;92739.22;2088095;28;20080;-81
2024/04/04 04:23:05;;;;;;;4.60;1.05;;;;;;;10.23;100.00;92741.19;2090101;28;20039;-81
2024/04/04 04:24:07;;;;;;;3.60;1.08;;;;;;;10.33;100.00;92740.16;2072513;28;20036;-81
2024/04/04 04:25:08;;;;;;;4.55;1.02;;;;;;;10.14;100.00;92746.34;2081712;28;20483;-80
2024/04/04 04:26:10;;;;;;;4.50;1.30;;;;;;;10.33;100.00;92742.84;2088099;28;20029;-81
2024/04/04 04:27:11;;;;;;;7.00;1.00;;;;;;;10.36;100.00;92741.22;2080921;28;20021;-81
2024/04/04 04:28:12;;;;;;;4.25;0.90;;;;;;;10.32;100.00;92744.00;2074533;28;20021;-81
2024/04/04 04:29:17;;;;;;;2.67;0.90;;;;;;;10.34;100.00;92742.41;2076041;28;20030;-81
2024/04/04 04:30:18;;;;;;;2.10;0.80;;;;;;;10.16;100.00;92734.09;2081484;28;20584;-81
2024/04/04 04:31:26;;;;;;;3.97;0.82;;;;;;;10.34;100.00;92734.38;2090017;28;20029;-81
2024/04/04 04:32:27;;;;;;;4.97;1.15;;;;;;;10.33;100.00;92740.16;2090182;28;20021;-80
2024/04/04 04:33:28;;;;;;;2.90;0.93;;;;;;;10.45;100.00;92739.47;2085563;28;20034;-80
2024/04/04 04:34:29;;;;;;;3.53;1.00;;;;;;;10.21;100.00;92733.56;2097969;28;20547;-80
2024/04/04 04:35:30;;;;;;;3.70;1.10;;;;;;;10.43;100.00;92736.44;2089726;28;20029;-81
2024/04/04 04:36:33;;;;;;;6.10;1.30;;;;;;;10.34;100.00;92736.31;2098123;28;20108;-81
2024/04/04 04:37:34;;;;;;;4.85;1.10;;;;;;;10.21;100.00;92741.59;2089818;28;20116;-81
2024/04/04 04:38:35;;;;;;;3.45;1.50;;;;;;;10.09;100.00;92739.59;2089960;28;20021;-81
2024/04/04 04:39:36;;;;;;;7.57;1.40;;;;;;;10.28;100.00;92738.00;2098251;28;20078;-81
2024/04/04 04:40:43;;;;;;;3.55;1.10;;;;;;;10.22;100.00;92751.09;2089763;28;20033;-81
2024/04/04 04:41:44;;;;;;;6.63;1.20;;;;;;;10.21;100.00;92749.59;2097598;28;20071;-81
2024/04/04 04:42:46;;;;;;;3.92;1.08;;;;;;;10.26;100.00;92749.09;2083153;28;20103;-81
2024/04/04 04:43:48;;;;;;;3.63;1.20;;;;;;;10.32;100.00;92746.69;2081082;28;20462;-80
2024/04/04 04:44:49;;;;;;;4.30;1.45;;;;;;;10.53;100.00;92748.75;2079102;28;20017;-80
2024/04/04 04:45:50;;;;;;;6.05;1.30;;;;;;;10.41;100.00;92741.47;2078550;28;20021;-81
2024/04/04 04:46:51;;;;;;;5.70;1.10;;;;;;;10.28;100.00;92743.34;2072443;28;20033;-81
2024/04/04 04:47:52;;;;;;;3.13;0.90;;;;;;;10.22;100.00;92740.41;2074477;28;20095;-80
2024/04/04 04:48:54;;;;;;;5.43;1.10;;;;;;;10.39;100.00;92743.81;2082748;28;20026;-80
2024/04/04 04:49:55;;;;;;;1.85;0.90;;;;;;;10.32;100.00;92744.75;2075212;28;20014;-80
2024/04/04 04:50:56;;;;;;;7.65;1.13;;;;;;;10.43;100.00;92743.72;2084834;28;20032;-81